createdAt,value
2019-02-16T00:00:38.530Z,66.24
2019-02-16T00:01:19.116Z,66.05
2019-02-16T00:01:59.675Z,66.05
2019-02-16T00:02:40.245Z,66.24
2019-02-16T00:03:20.820Z,66.05
2019-02-16T00:04:01.398Z,66.24
2019-02-16T00:04:41.975Z,66.14
2019-02-16T00:05:22.524Z,65.95
2019-02-16T00:06:03.104Z,65.67
2019-02-16T00:06:43.675Z,65.95
2019-02-16T00:07:24.235Z,66.14
2019-02-16T00:08:04.802Z,65.57
2019-02-16T00:08:45.364Z,65.47
2019-02-16T00:09:25.945Z,65.86
2019-02-16T00:10:06.509Z,65.57
2019-02-16T00:10:47.085Z,65.67
2019-02-16T00:11:27.666Z,66.05
2019-02-16T00:12:08.237Z,66.05
2019-02-16T00:12:48.846Z,65.76
2019-02-16T00:13:29.413Z,66.24
2019-02-16T00:14:09.970Z,66.24
2019-02-16T00:14:50.515Z,66.14
2019-02-16T00:15:31.084Z,66.14
2019-02-16T00:16:11.662Z,66.33
2019-02-16T00:16:52.260Z,66.05
2019-02-16T00:17:32.829Z,66.71
2019-02-16T00:18:13.385Z,66.52
2019-02-16T00:18:53.961Z,66.61
2019-02-16T00:19:34.528Z,66.71
2019-02-16T00:20:15.088Z,66.52
2019-02-16T00:21:03.573Z,66.8
2019-02-16T00:21:36.231Z,66.8
2019-02-16T00:22:16.787Z,66.8
2019-02-16T00:22:57.367Z,67.09
2019-02-16T00:23:37.969Z,66.8
2019-02-16T00:24:18.524Z,66.9
2019-02-16T00:24:59.088Z,66.71
2019-02-16T00:25:39.655Z,66.8
2019-02-16T00:26:20.231Z,67.19
2019-02-16T00:27:00.813Z,67.19
2019-02-16T00:27:41.375Z,67
2019-02-16T00:28:21.922Z,67
2019-02-16T00:29:02.473Z,67
2019-02-16T00:29:43.055Z,67.28
2019-02-16T00:30:23.630Z,67.28
2019-02-16T00:31:04.188Z,67.19
2019-02-16T00:31:44.752Z,67.66
2019-02-16T00:32:25.340Z,67.38
2019-02-16T00:33:05.898Z,67.38
2019-02-16T00:33:46.452Z,67.47
2019-02-16T00:34:27.002Z,67.47
2019-02-16T00:35:07.575Z,67.57
2019-02-16T00:35:48.163Z,67.47
2019-02-16T00:36:28.703Z,67
2019-02-16T00:37:09.270Z,67.09
2019-02-16T00:37:49.828Z,67
2019-02-16T00:38:30.374Z,67.09
2019-02-16T00:39:10.935Z,66.96
2019-02-16T00:39:51.489Z,67.25
2019-02-16T00:40:32.054Z,67.15
2019-02-16T00:41:12.613Z,66.96
2019-02-16T00:41:53.167Z,67.34
2019-02-16T00:42:33.728Z,67.72
2019-02-16T00:43:14.291Z,67.72
2019-02-16T00:43:54.837Z,67.25
2019-02-16T00:44:35.419Z,67.72
2019-02-16T00:45:15.976Z,67.82
2019-02-16T00:45:56.571Z,67.63
2019-02-16T00:46:37.154Z,67.53
2019-02-16T00:47:17.734Z,67.82
2019-02-16T00:47:58.313Z,67.53
2019-02-16T00:48:38.909Z,67.53
2019-02-16T00:49:19.475Z,67.72
2019-02-16T00:50:00.035Z,67.63
2019-02-16T00:50:40.630Z,67.72
2019-02-16T00:51:21.213Z,68.39
2019-02-16T00:52:01.801Z,68.01
2019-02-16T00:52:42.438Z,68.01
2019-02-16T00:53:23.055Z,67.91
2019-02-16T00:54:03.602Z,68.01
2019-02-16T00:54:44.155Z,68.29
2019-02-16T00:55:24.745Z,68.39
2019-02-16T00:56:05.321Z,68.58
2019-02-16T00:56:45.906Z,68.39
2019-02-16T00:57:26.459Z,68.48
2019-02-16T00:58:07.018Z,68.67
2019-02-16T00:58:47.561Z,68.58
2019-02-16T00:59:28.465Z,68.48
2019-02-16T01:00:09.049Z,68.67
2019-02-16T01:00:49.641Z,68.67
2019-02-16T01:01:30.204Z,68.48
2019-02-16T01:02:10.759Z,68.58
2019-02-16T01:02:51.320Z,68.67
2019-02-16T01:03:31.900Z,68.48
2019-02-16T01:04:12.443Z,68.39
2019-02-16T01:04:55.608Z,68.48
2019-02-16T01:05:36.187Z,68.29
2019-02-16T01:06:16.748Z,68.58
2019-02-16T01:06:57.288Z,68.77
2019-02-16T01:07:37.857Z,68.67
2019-02-16T01:08:18.426Z,68.96
2019-02-16T01:08:58.996Z,68.67
2019-02-16T01:09:39.571Z,69.15
2019-02-16T01:10:20.184Z,69.24
2019-02-16T01:11:00.735Z,69.05
2019-02-16T01:11:41.291Z,69.05
2019-02-16T01:12:21.854Z,68.86
2019-02-16T01:13:02.429Z,69.34
2019-02-16T01:13:42.973Z,69.05
2019-02-16T01:14:23.545Z,69.62
2019-02-16T01:15:04.125Z,69.62
2019-02-16T01:15:44.676Z,69.53
2019-02-16T01:16:25.284Z,69.53
2019-02-16T01:17:05.867Z,69.53
2019-02-16T01:17:46.461Z,69.71
2019-02-16T01:18:27.089Z,69.53
2019-02-16T01:19:07.656Z,69.43
2019-02-16T01:19:48.191Z,69.53
2019-02-16T01:20:28.771Z,69.34
2019-02-16T01:21:09.367Z,69.62
2019-02-16T01:21:49.910Z,69.53
2019-02-16T01:22:30.462Z,69.53
2019-02-16T01:23:11.069Z,69.43
2019-02-16T01:23:51.643Z,69.62
2019-02-16T01:24:32.218Z,69.71
2019-02-16T01:25:12.764Z,69.62
2019-02-16T01:25:53.321Z,69.59
2019-02-16T01:26:33.879Z,68.86
2019-02-16T01:27:14.439Z,69.15
2019-02-16T01:27:55.021Z,69.24
2019-02-16T01:28:35.588Z,69.24
2019-02-16T01:29:16.139Z,69.05
2019-02-16T01:29:56.752Z,69.15
2019-02-16T01:30:37.313Z,69.71
2019-02-16T01:31:17.909Z,69.53
2019-02-16T01:31:58.515Z,69.05
2019-02-16T01:32:39.794Z,69.62
2019-02-16T01:33:20.371Z,69.62
2019-02-16T01:34:00.998Z,69.34
2019-02-16T01:34:41.647Z,69.53
2019-02-16T01:35:22.255Z,69.62
2019-02-16T01:36:02.874Z,69.71
2019-02-16T01:36:43.494Z,69.53
2019-02-16T01:37:24.116Z,69.4
2019-02-16T01:38:04.701Z,69.34
2019-02-16T01:38:45.334Z,69.15
2019-02-16T01:39:25.967Z,69.34
2019-02-16T01:40:06.594Z,69.24
2019-02-16T01:40:47.221Z,69.15
2019-02-16T01:41:27.835Z,69.05
2019-02-16T01:42:08.484Z,69.24
2019-02-16T01:42:49.076Z,69.24
2019-02-16T01:43:29.690Z,69.34
2019-02-16T01:44:10.314Z,69.24
2019-02-16T01:44:50.889Z,69.15
2019-02-16T01:45:31.481Z,69.05
2019-02-16T01:46:12.061Z,69.15
2019-02-16T01:46:52.657Z,69.05
2019-02-16T01:47:33.273Z,69.15
2019-02-16T01:48:13.838Z,69.34
2019-02-16T01:48:54.436Z,69.24
2019-02-16T01:49:34.986Z,69.05
2019-02-16T01:50:15.553Z,69.21
2019-02-16T01:50:56.125Z,69.11
2019-02-16T01:51:36.752Z,68.92
2019-02-16T01:52:17.343Z,69.59
2019-02-16T01:52:57.948Z,69.3
2019-02-16T01:53:38.581Z,69.15
2019-02-16T01:54:19.161Z,68.92
2019-02-16T01:54:59.806Z,69.49
2019-02-16T01:55:40.434Z,69.71
2019-02-16T01:56:21.039Z,69.53
2019-02-16T01:57:01.656Z,69.49
2019-02-16T01:57:42.284Z,69.53
2019-02-16T01:58:22.874Z,69.53
2019-02-16T01:59:03.462Z,69.4
2019-02-16T01:59:44.038Z,69.68
2019-02-16T02:00:24.684Z,69.62
2019-02-16T02:01:05.259Z,69.4
2019-02-16T02:01:45.865Z,69.11
2019-02-16T02:02:26.455Z,69.49
2019-02-16T02:03:07.073Z,69.49
2019-02-16T02:03:47.679Z,69.21
2019-02-16T02:04:28.325Z,69.21
2019-02-16T02:05:08.928Z,69.49
2019-02-16T02:05:49.536Z,70.06
2019-02-16T02:06:30.119Z,69.78
2019-02-16T02:07:10.706Z,69.78
2019-02-16T02:07:51.312Z,69.96
2019-02-16T02:08:31.918Z,69.68
2019-02-16T02:09:12.526Z,69.87
2019-02-16T02:09:53.141Z,69.87
2019-02-16T02:10:33.808Z,70.06
2019-02-16T02:11:14.449Z,69.96
2019-02-16T02:11:55.085Z,70.06
2019-02-16T02:12:35.711Z,70.54
2019-02-16T02:13:16.320Z,70.54
2019-02-16T02:13:56.896Z,70.54
2019-02-16T02:14:37.546Z,70.35
2019-02-16T02:15:18.140Z,70.44
2019-02-16T02:15:58.721Z,70.35
2019-02-16T02:16:39.362Z,70.25
2019-02-16T02:17:19.975Z,70.44
2019-02-16T02:18:00.571Z,70.44
2019-02-16T02:18:41.153Z,70.44
2019-02-16T02:19:21.814Z,70.54
2019-02-16T02:20:02.364Z,70.44
2019-02-16T02:20:43.012Z,70.44
2019-02-16T02:21:23.607Z,70.25
2019-02-16T02:22:04.220Z,70.44
2019-02-16T02:22:44.825Z,70.35
2019-02-16T02:23:25.494Z,70.44
2019-02-16T02:24:06.107Z,70.44
2019-02-16T02:24:46.702Z,70.63
2019-02-16T02:25:27.282Z,70.54
2019-02-16T02:26:07.873Z,70.35
2019-02-16T02:26:48.458Z,70.54
2019-02-16T02:27:29.061Z,70.35
2019-02-16T02:28:09.664Z,70.35
2019-02-16T02:28:50.292Z,70.82
2019-02-16T02:29:30.939Z,70.44
2019-02-16T02:30:11.524Z,70.73
2019-02-16T02:30:52.127Z,70.54
2019-02-16T02:31:32.753Z,70.63
2019-02-16T02:32:13.375Z,70.73
2019-02-16T02:32:53.955Z,70.73
2019-02-16T02:33:34.550Z,70.63
2019-02-16T02:34:15.128Z,70.73
2019-02-16T02:34:55.753Z,70.73
2019-02-16T02:35:36.348Z,70.73
2019-02-16T02:36:16.934Z,70.63
2019-02-16T02:36:57.508Z,70.63
2019-02-16T02:37:38.116Z,70.73
2019-02-16T02:38:18.720Z,70.63
2019-02-16T02:38:59.341Z,70.63
2019-02-16T02:39:39.963Z,70.82
2019-02-16T02:40:20.533Z,70.92
2019-02-16T02:41:01.181Z,70.92
2019-02-16T02:41:41.768Z,70.92
2019-02-16T02:42:22.357Z,71.11
2019-02-16T02:43:02.953Z,71.01
2019-02-16T02:43:43.578Z,70.73
2019-02-16T02:44:24.176Z,70.73
2019-02-16T02:45:04.790Z,71.11
2019-02-16T02:45:45.376Z,71.01
2019-02-16T02:46:25.982Z,71.01
2019-02-16T02:47:06.640Z,71.01
2019-02-16T02:47:47.262Z,70.82
2019-02-16T02:48:27.860Z,71.01
2019-02-16T02:49:08.432Z,70.82
2019-02-16T02:49:49.032Z,70.92
2019-02-16T02:50:29.630Z,70.92
2019-02-16T02:51:10.225Z,70.73
2019-02-16T02:51:52.414Z,71.07
2019-02-16T02:52:31.572Z,70.92
2019-02-16T02:53:11.994Z,71.11
2019-02-16T02:53:52.623Z,70.88
2019-02-16T02:54:33.240Z,70.98
2019-02-16T02:55:13.835Z,70.98
2019-02-16T02:55:54.462Z,70.88
2019-02-16T02:56:35.068Z,70.88
2019-02-16T02:57:15.668Z,70.69
2019-02-16T02:57:56.275Z,70.88
2019-02-16T02:58:36.863Z,71.2
2019-02-16T02:59:17.456Z,70.78
2019-02-16T02:59:58.064Z,70.78
2019-02-16T03:00:38.681Z,71.17
2019-02-16T03:01:19.298Z,70.88
2019-02-16T03:01:59.885Z,70.78
2019-02-16T03:02:40.490Z,70.88
2019-02-16T03:03:21.095Z,71.07
2019-02-16T03:04:01.697Z,71.17
2019-02-16T03:04:42.315Z,70.78
2019-02-16T03:05:22.925Z,71.17
2019-02-16T03:06:03.522Z,71.07
2019-02-16T03:06:44.112Z,71.17
2019-02-16T03:07:24.712Z,71.17
2019-02-16T03:08:05.332Z,70.98
2019-02-16T03:08:45.956Z,70.98
2019-02-16T03:09:26.559Z,71.07
2019-02-16T03:10:07.172Z,70.78
2019-02-16T03:10:47.761Z,71.17
2019-02-16T03:11:28.368Z,71.07
2019-02-16T03:12:08.952Z,71.17
2019-02-16T03:12:49.588Z,71.17
2019-02-16T03:13:30.170Z,71.26
2019-02-16T03:14:10.786Z,71.07
2019-02-16T03:14:51.367Z,71.26
2019-02-16T03:15:32.002Z,71.26
2019-02-16T03:16:12.611Z,71.55
2019-02-16T03:16:53.254Z,71.36
2019-02-16T03:17:33.874Z,71.17
2019-02-16T03:18:14.493Z,71.55
2019-02-16T03:18:55.089Z,71.36
2019-02-16T03:19:35.718Z,71.36
2019-02-16T03:20:16.318Z,71.26
2019-02-16T03:20:56.917Z,71.64
2019-02-16T03:21:37.566Z,71.45
2019-02-16T03:22:18.158Z,71.83
2019-02-16T03:22:58.752Z,71.45
2019-02-16T03:23:39.392Z,71.55
2019-02-16T03:24:19.988Z,71.64
2019-02-16T03:25:00.599Z,71.83
2019-02-16T03:25:41.198Z,71.92
2019-02-16T03:26:21.797Z,71.64
2019-02-16T03:27:02.441Z,71.83
2019-02-16T03:27:43.055Z,71.83
2019-02-16T03:28:23.674Z,72.4
2019-02-16T03:29:04.257Z,72.3
2019-02-16T03:29:44.892Z,72.11
2019-02-16T03:30:25.513Z,72.11
2019-02-16T03:31:06.098Z,72.11
2019-02-16T03:31:46.713Z,72.3
2019-02-16T03:32:27.332Z,72.02
2019-02-16T03:33:07.920Z,72.4
2019-02-16T03:33:48.530Z,72.3
2019-02-16T03:34:29.161Z,72.49
2019-02-16T03:35:09.756Z,72.3
2019-02-16T03:35:50.351Z,72.21
2019-02-16T03:36:30.941Z,72.3
2019-02-16T03:37:11.542Z,72.21
2019-02-16T03:37:52.140Z,71.92
2019-02-16T03:38:32.746Z,72.02
2019-02-16T03:39:13.364Z,71.92
2019-02-16T03:39:53.950Z,71.98
2019-02-16T03:40:34.545Z,72.21
2019-02-16T03:41:15.155Z,72.59
2019-02-16T03:41:55.784Z,72.55
2019-02-16T03:42:36.409Z,72.59
2019-02-16T03:43:17.017Z,72.97
2019-02-16T03:43:57.617Z,72.68
2019-02-16T03:44:38.223Z,72.4
2019-02-16T03:45:18.836Z,72.59
2019-02-16T03:45:59.417Z,72.4
2019-02-16T03:46:40.012Z,72.59
2019-02-16T03:47:20.592Z,72.59
2019-02-16T03:48:01.221Z,72.3
2019-02-16T03:48:41.844Z,72.55
2019-02-16T03:49:22.431Z,73.03
2019-02-16T03:50:03.094Z,72.64
2019-02-16T03:50:43.701Z,73.22
2019-02-16T03:51:24.313Z,72.93
2019-02-16T03:52:13.173Z,73.16
2019-02-16T03:52:45.477Z,73.22
2019-02-16T03:53:26.114Z,72.93
2019-02-16T03:54:06.722Z,73.12
2019-02-16T03:54:47.429Z,73.12
2019-02-16T03:55:28.036Z,73.12
2019-02-16T03:56:08.639Z,73.22
2019-02-16T03:56:49.251Z,73.03
2019-02-16T03:57:29.857Z,73.12
2019-02-16T03:58:10.489Z,73.22
2019-02-16T03:58:51.087Z,73.03
2019-02-16T03:59:32.117Z,73.12
2019-02-16T04:00:12.707Z,73.41
2019-02-16T04:00:53.329Z,73.03
2019-02-16T04:01:33.942Z,73.31
2019-02-16T04:02:14.531Z,73.22
2019-02-16T04:02:55.141Z,72.84
2019-02-16T04:03:35.770Z,73.12
2019-02-16T04:04:16.346Z,73.31
2019-02-16T04:04:56.950Z,73.03
2019-02-16T04:05:37.540Z,73.12
2019-02-16T04:06:18.126Z,73.22
2019-02-16T04:06:58.735Z,73.22
2019-02-16T04:07:39.340Z,73.12
2019-02-16T04:08:19.948Z,73.12
2019-02-16T04:09:00.533Z,73.41
2019-02-16T04:09:41.159Z,73.31
2019-02-16T04:10:21.758Z,73.6
2019-02-16T04:11:02.365Z,73.6
2019-02-16T04:11:42.953Z,73.41
2019-02-16T04:12:23.562Z,73.69
2019-02-16T04:13:04.178Z,73.31
2019-02-16T04:13:44.767Z,73.5
2019-02-16T04:14:25.371Z,73.5
2019-02-16T04:15:05.966Z,73.41
2019-02-16T04:15:46.566Z,73.6
2019-02-16T04:16:27.144Z,74.07
2019-02-16T04:17:07.714Z,73.6
2019-02-16T04:17:48.283Z,73.5
2019-02-16T04:18:28.879Z,73.41
2019-02-16T04:19:09.453Z,73.97
2019-02-16T04:19:50.034Z,74.26
2019-02-16T04:20:30.592Z,73.97
2019-02-16T04:21:11.144Z,73.97
2019-02-16T04:21:51.754Z,74.07
2019-02-16T04:22:32.349Z,74.45
2019-02-16T04:23:12.896Z,74.73
2019-02-16T04:23:53.506Z,74.45
2019-02-16T04:24:34.057Z,74.07
2019-02-16T04:25:14.648Z,74.16
2019-02-16T04:25:55.264Z,74.26
2019-02-16T04:26:35.849Z,74.26
2019-02-16T04:27:16.389Z,74.16
2019-02-16T04:27:56.955Z,74.26
2019-02-16T04:28:37.529Z,74.35
2019-02-16T04:29:18.088Z,74.16
2019-02-16T04:29:58.644Z,74.35
2019-02-16T04:30:39.242Z,74.16
2019-02-16T04:31:19.800Z,74.16
2019-02-16T04:32:00.379Z,74.26
2019-02-16T04:32:40.940Z,74.16
2019-02-16T04:33:21.507Z,74.07
2019-02-16T04:34:02.096Z,74.64
2019-02-16T04:34:42.646Z,74.26
2019-02-16T04:35:23.259Z,74.45
2019-02-16T04:36:03.833Z,74.54
2019-02-16T04:36:44.403Z,74.26
2019-02-16T04:37:24.979Z,74.45
2019-02-16T04:38:05.571Z,74.45
2019-02-16T04:38:46.127Z,74.35
2019-02-16T04:39:26.740Z,74.64
2019-02-16T04:40:07.328Z,74.45
2019-02-16T04:40:48.161Z,74.83
2019-02-16T04:41:28.486Z,74.64
2019-02-16T04:42:09.046Z,74.35
2019-02-16T04:42:49.627Z,74.35
2019-02-16T04:43:30.198Z,74.41
2019-02-16T04:44:10.777Z,74.45
2019-02-16T04:44:51.359Z,74.35
2019-02-16T04:45:31.919Z,74.54
2019-02-16T04:46:12.489Z,74.41
2019-02-16T04:46:53.076Z,74.41
2019-02-16T04:47:33.656Z,74.32
2019-02-16T04:48:14.324Z,74.54
2019-02-16T04:48:54.892Z,74.35
2019-02-16T04:49:35.463Z,74.73
2019-02-16T04:50:16.036Z,74.35
2019-02-16T04:50:56.621Z,74.92
2019-02-16T04:51:37.199Z,74.92
2019-02-16T04:52:17.774Z,74.79
2019-02-16T04:52:58.366Z,74.92
2019-02-16T04:53:38.909Z,74.92
2019-02-16T04:54:19.476Z,74.79
2019-02-16T04:55:00.064Z,74.79
2019-02-16T04:55:40.667Z,75.26
2019-02-16T04:56:21.233Z,74.79
2019-02-16T04:57:01.797Z,74.98
2019-02-16T04:57:42.362Z,74.88
2019-02-16T04:58:22.916Z,75.64
2019-02-16T04:59:03.468Z,75.55
2019-02-16T04:59:44.329Z,75.45
2019-02-16T05:00:24.872Z,75.55
2019-02-16T05:01:05.423Z,75.45
2019-02-16T05:01:45.975Z,75.45
2019-02-16T05:02:26.543Z,75.55
2019-02-16T05:03:07.098Z,75.45
2019-02-16T05:03:47.650Z,75.64
2019-02-16T05:04:28.222Z,75.68
2019-02-16T05:05:08.778Z,75.84
2019-02-16T05:05:49.354Z,75.84
2019-02-16T05:06:29.922Z,75.93
2019-02-16T05:07:10.505Z,75.84
2019-02-16T05:07:51.063Z,75.93
2019-02-16T05:08:31.606Z,75.93
2019-02-16T05:09:12.167Z,75.84
2019-02-16T05:09:52.714Z,75.78
2019-02-16T05:10:33.254Z,75.59
2019-02-16T05:11:13.812Z,75.45
2019-02-16T05:11:54.437Z,75.49
2019-02-16T05:12:34.996Z,75.45
2019-02-16T05:13:15.599Z,75.84
2019-02-16T05:13:56.110Z,75.45
2019-02-16T05:14:36.672Z,75.74
2019-02-16T05:15:17.242Z,75.74
2019-02-16T05:15:57.844Z,75.36
2019-02-16T05:16:38.392Z,75.49
2019-02-16T05:17:18.963Z,75.68
2019-02-16T05:17:59.505Z,75.68
2019-02-16T05:18:40.059Z,75.59
2019-02-16T05:19:20.705Z,75.68
2019-02-16T05:20:01.276Z,75.64
2019-02-16T05:20:41.830Z,75.49
2019-02-16T05:21:22.407Z,75.4
2019-02-16T05:22:02.971Z,75.31
2019-02-16T05:22:44.774Z,75.4
2019-02-16T05:23:24.118Z,75.4
2019-02-16T05:24:04.674Z,75.31
2019-02-16T05:24:45.232Z,75.59
2019-02-16T05:25:25.784Z,75.4
2019-02-16T05:26:06.356Z,75.4
2019-02-16T05:26:46.929Z,75.59
2019-02-16T05:27:27.483Z,75.59
2019-02-16T05:28:08.058Z,75.4
2019-02-16T05:28:48.634Z,75.4
2019-02-16T05:29:29.218Z,75.59
2019-02-16T05:30:09.772Z,75.68
2019-02-16T05:30:50.344Z,75.4
2019-02-16T05:31:30.908Z,75.4
2019-02-16T05:32:11.483Z,75.4
2019-02-16T05:32:52.077Z,75.49
2019-02-16T05:33:32.684Z,75.31
2019-02-16T05:34:13.222Z,75.59
2019-02-16T05:34:53.774Z,75.59
2019-02-16T05:35:34.369Z,75.21
2019-02-16T05:36:14.926Z,75.59
2019-02-16T05:36:55.527Z,75.68
2019-02-16T05:37:36.313Z,75.55
2019-02-16T05:38:16.877Z,75.59
2019-02-16T05:38:57.445Z,75.31
2019-02-16T05:39:37.993Z,75.78
2019-02-16T05:40:18.554Z,75.11
2019-02-16T05:40:59.173Z,75.21
2019-02-16T05:41:39.716Z,75.68
2019-02-16T05:42:20.280Z,75.68
2019-02-16T05:43:00.865Z,75.21
2019-02-16T05:43:41.434Z,75.59
2019-02-16T05:44:22.004Z,75.68
2019-02-16T05:45:02.563Z,75.21
2019-02-16T05:45:43.140Z,74.64
2019-02-16T05:46:24.678Z,74.73
2019-02-16T05:47:04.260Z,75.31
2019-02-16T05:47:44.854Z,75.31
2019-02-16T05:48:25.415Z,74.64
2019-02-16T05:49:05.966Z,74.83
2019-02-16T05:49:46.524Z,75.07
2019-02-16T05:50:27.120Z,75.4
2019-02-16T05:51:07.720Z,75.26
2019-02-16T05:51:48.313Z,74.88
2019-02-16T05:52:28.876Z,74.79
2019-02-16T05:53:09.437Z,74.98
2019-02-16T05:53:50.009Z,75.07
2019-02-16T05:54:30.587Z,75.26
2019-02-16T05:55:11.145Z,75.64
2019-02-16T05:55:51.724Z,75.64
2019-02-16T05:56:32.295Z,75.26
2019-02-16T05:57:12.854Z,75.26
2019-02-16T05:57:53.412Z,75.26
2019-02-16T05:58:33.972Z,75.45
2019-02-16T05:59:14.834Z,75.55
2019-02-16T05:59:55.406Z,75.64
2019-02-16T06:00:35.963Z,75.36
2019-02-16T06:01:16.522Z,75.74
2019-02-16T06:01:57.080Z,75.17
2019-02-16T06:02:37.677Z,74.79
2019-02-16T06:03:18.242Z,74.79
2019-02-16T06:03:58.807Z,74.79
2019-02-16T06:04:39.407Z,75.07
2019-02-16T06:05:19.953Z,74.88
2019-02-16T06:06:00.535Z,75.17
2019-02-16T06:06:41.096Z,75.36
2019-02-16T06:07:21.709Z,75.26
2019-02-16T06:08:02.288Z,75.17
2019-02-16T06:08:42.847Z,75.26
2019-02-16T06:09:23.416Z,75.26
2019-02-16T06:10:03.986Z,75.45
2019-02-16T06:10:44.545Z,75.55
2019-02-16T06:11:25.114Z,75.64
2019-02-16T06:12:05.674Z,75.64
2019-02-16T06:12:46.243Z,75.84
2019-02-16T06:13:26.809Z,75.45
2019-02-16T06:14:07.390Z,75.55
2019-02-16T06:14:48.050Z,75.45
2019-02-16T06:15:28.561Z,75.36
2019-02-16T06:16:09.145Z,75.17
2019-02-16T06:16:49.708Z,75.17
2019-02-16T06:17:30.276Z,75.64
2019-02-16T06:18:10.858Z,75.55
2019-02-16T06:18:51.429Z,75.64
2019-02-16T06:19:31.993Z,75.17
2019-02-16T06:20:12.581Z,75.07
2019-02-16T06:20:53.163Z,75.64
2019-02-16T06:21:33.805Z,75.55
2019-02-16T06:22:14.366Z,75.55
2019-02-16T06:23:03.671Z,75.55
2019-02-16T06:23:35.503Z,75.55
2019-02-16T06:24:16.075Z,75.36
2019-02-16T06:24:56.649Z,75.17
2019-02-16T06:25:37.255Z,75.26
2019-02-16T06:26:17.818Z,75.55
2019-02-16T06:26:58.406Z,75.55
2019-02-16T06:27:38.998Z,75.84
2019-02-16T06:28:19.599Z,75.84
2019-02-16T06:29:00.155Z,75.84
2019-02-16T06:29:40.730Z,75.74
2019-02-16T06:30:21.304Z,75.84
2019-02-16T06:31:01.884Z,76.59
2019-02-16T06:31:42.461Z,81.33
2019-02-16T06:32:23.015Z,85.07
2019-02-16T06:33:03.592Z,84.12
2019-02-16T06:33:44.170Z,82.7
2019-02-16T06:34:24.742Z,80.62
2019-02-16T06:35:05.303Z,77.96
2019-02-16T06:35:45.849Z,76.73
2019-02-16T06:36:26.414Z,75.49
2019-02-16T06:37:06.965Z,74.83
2019-02-16T06:37:47.526Z,74.45
2019-02-16T06:38:28.073Z,74.45
2019-02-16T06:39:08.681Z,73.97
2019-02-16T06:39:49.235Z,73.97
2019-02-16T06:40:29.795Z,74.16
2019-02-16T06:41:10.369Z,74.16
2019-02-16T06:41:50.935Z,74.45
2019-02-16T06:42:31.527Z,74.26
2019-02-16T06:43:12.106Z,74.54
2019-02-16T06:43:52.641Z,74.45
2019-02-16T06:44:33.211Z,74.54
2019-02-16T06:45:13.786Z,74.83
2019-02-16T06:45:54.337Z,74.79
2019-02-16T06:46:34.891Z,74.92
2019-02-16T06:47:15.437Z,75.64
2019-02-16T06:47:55.983Z,75.26
2019-02-16T06:48:36.543Z,75.45
2019-02-16T06:49:17.118Z,75.49
2019-02-16T06:49:57.692Z,75.26
2019-02-16T06:50:38.246Z,75.26
2019-02-16T06:51:18.825Z,75.45
2019-02-16T06:51:59.404Z,75.55
2019-02-16T06:52:39.976Z,75.45
2019-02-16T06:53:20.555Z,75.74
2019-02-16T06:54:01.161Z,75.64
2019-02-16T06:54:41.763Z,75.64
2019-02-16T06:55:22.335Z,75.36
2019-02-16T06:56:02.929Z,75.36
2019-02-16T06:56:43.550Z,75.36
2019-02-16T06:57:24.139Z,75.64
2019-02-16T06:58:04.696Z,75.84
2019-02-16T06:58:45.523Z,75.55
2019-02-16T06:59:26.275Z,75.74
2019-02-16T07:00:06.925Z,75.64
2019-02-16T07:00:47.500Z,75.64
2019-02-16T07:01:28.077Z,75.64
2019-02-16T07:02:08.689Z,75.74
2019-02-16T07:02:49.258Z,75.93
2019-02-16T07:03:29.816Z,75.93
2019-02-16T07:04:10.387Z,75.84
2019-02-16T07:04:50.990Z,75.84
2019-02-16T07:05:31.550Z,75.84
2019-02-16T07:06:12.100Z,75.78
2019-02-16T07:06:52.683Z,75.68
2019-02-16T07:07:33.267Z,75.68
2019-02-16T07:08:14.051Z,75.49
2019-02-16T07:08:54.669Z,75.4
2019-02-16T07:09:35.400Z,75.26
2019-02-16T07:10:16.085Z,75.31
2019-02-16T07:10:56.865Z,75.4
2019-02-16T07:11:37.522Z,75.45
2019-02-16T07:12:18.103Z,75.78
2019-02-16T07:12:58.662Z,75.21
2019-02-16T07:13:39.228Z,75.02
2019-02-16T07:14:19.794Z,75.68
2019-02-16T07:15:00.403Z,75.49
2019-02-16T07:15:40.927Z,75.59
2019-02-16T07:16:21.492Z,75.4
2019-02-16T07:17:02.048Z,75.68
2019-02-16T07:17:42.688Z,75.68
2019-02-16T07:18:23.243Z,75.68
2019-02-16T07:19:03.986Z,74.92
2019-02-16T07:19:44.644Z,75.11
2019-02-16T07:20:25.346Z,74.92
2019-02-16T07:21:05.924Z,75.31
2019-02-16T07:21:46.526Z,75.11
2019-02-16T07:22:27.634Z,74.64
2019-02-16T07:23:08.307Z,75.31
2019-02-16T07:23:48.913Z,74.54
2019-02-16T07:24:29.438Z,74.92
2019-02-16T07:25:10.014Z,75.21
2019-02-16T07:25:50.683Z,74.64
2019-02-16T07:26:32.690Z,74.54
2019-02-16T07:27:15.206Z,74.92
2019-02-16T07:27:56.890Z,74.83
2019-02-16T07:28:40.705Z,74.64
2019-02-16T07:29:23.311Z,74.73
2019-02-16T07:30:07.210Z,74.45
2019-02-16T07:30:47.724Z,74.35
2019-02-16T07:31:28.704Z,74.45
2019-02-16T07:32:09.713Z,74.45
2019-02-16T07:32:55.219Z,74.26
2019-02-16T07:33:38.705Z,74.16
2019-02-16T07:34:19.615Z,73.97
2019-02-16T07:35:00.908Z,73.6
2019-02-16T07:35:48.721Z,74.07
2019-02-16T07:36:31.717Z,73.88
2019-02-16T07:37:12.908Z,73.5
2019-02-16T07:37:54.706Z,73.79
2019-02-16T07:38:35.710Z,73.5
2019-02-16T07:39:15.679Z,73.41
2019-02-16T07:39:56.230Z,73.69
2019-02-16T07:40:36.802Z,73.12
2019-02-16T07:41:17.346Z,73.12
2019-02-16T07:41:57.903Z,72.36
2019-02-16T07:42:38.462Z,72.84
2019-02-16T07:43:19.030Z,72.55
2019-02-16T07:43:59.579Z,72.55
2019-02-16T07:44:40.160Z,72.08
2019-02-16T07:45:20.730Z,72.3
2019-02-16T07:46:01.316Z,71.89
2019-02-16T07:46:41.859Z,72.11
2019-02-16T07:47:22.437Z,72.11
2019-02-16T07:48:03.001Z,71.64
2019-02-16T07:48:43.555Z,71.55
2019-02-16T07:49:24.113Z,71.73
2019-02-16T07:50:04.674Z,72.4
2019-02-16T07:50:45.262Z,71.73
2019-02-16T07:51:25.828Z,71.92
2019-02-16T07:52:06.393Z,71.92
2019-02-16T07:52:46.961Z,71.83
2019-02-16T07:53:31.247Z,71.83
2019-02-16T07:54:08.093Z,71.73
2019-02-16T07:54:48.659Z,71.26
2019-02-16T07:55:29.223Z,71.17
2019-02-16T07:56:09.776Z,71.26
2019-02-16T07:56:50.331Z,71.26
2019-02-16T07:57:30.931Z,70.88
2019-02-16T07:58:11.536Z,70.78
2019-02-16T07:58:52.082Z,70.78
2019-02-16T07:59:32.660Z,70.88
2019-02-16T08:00:13.240Z,70.4
2019-02-16T08:00:53.790Z,70.5
2019-02-16T08:01:34.348Z,70.5
2019-02-16T08:02:14.923Z,70.78
2019-02-16T08:02:55.509Z,70.21
2019-02-16T08:03:36.079Z,70.4
2019-02-16T08:04:16.648Z,70.21
2019-02-16T08:04:57.225Z,70.69
2019-02-16T08:05:37.815Z,70.4
2019-02-16T08:06:18.453Z,70.5
2019-02-16T08:06:59.065Z,69.93
2019-02-16T08:07:39.633Z,70.12
2019-02-16T08:08:20.176Z,70.12
2019-02-16T08:09:00.771Z,69.84
2019-02-16T08:09:41.330Z,69.74
2019-02-16T08:10:21.900Z,70.21
2019-02-16T08:11:02.479Z,69.96
2019-02-16T08:11:43.055Z,69.21
2019-02-16T08:12:23.608Z,68.73
2019-02-16T08:13:04.181Z,68.73
2019-02-16T08:13:44.910Z,68.64
2019-02-16T08:14:25.472Z,67.79
2019-02-16T08:15:06.033Z,67.88
2019-02-16T08:15:46.606Z,68.16
2019-02-16T08:16:27.172Z,67.97
2019-02-16T08:17:07.875Z,67.88
2019-02-16T08:17:48.444Z,68.35
2019-02-16T08:18:29.079Z,67.63
2019-02-16T08:19:09.721Z,67.44
2019-02-16T08:19:52.705Z,67.63
2019-02-16T08:20:35.155Z,67.28
2019-02-16T08:21:16.835Z,66.17
2019-02-16T08:21:58.994Z,65.41
2019-02-16T08:22:41.784Z,62.97
2019-02-16T08:23:24.271Z,61.38
2019-02-16T08:24:05.911Z,59.61
2019-02-16T08:24:47.373Z,58.02
2019-02-16T08:25:28.754Z,55.92
2019-02-16T08:26:12.014Z,55
2019-02-16T08:26:53.490Z,53.31
2019-02-16T08:27:35.302Z,51.59
2019-02-16T08:28:18.976Z,50.38
2019-02-16T08:29:01.150Z,49.52
2019-02-16T08:29:42.188Z,48.49
2019-02-16T08:30:22.768Z,47.34
2019-02-16T08:31:03.365Z,46.7
2019-02-16T08:31:44.719Z,46.03
2019-02-16T08:32:25.339Z,45.65
2019-02-16T08:33:06.052Z,45.58
2019-02-16T08:33:46.638Z,44.72
2019-02-16T08:34:27.212Z,44.43
2019-02-16T08:35:07.837Z,43.69
2019-02-16T08:35:48.450Z,43.02
2019-02-16T08:36:29.016Z,42.07
2019-02-16T08:37:09.625Z,41.49
2019-02-16T08:37:50.229Z,41.61
2019-02-16T08:38:30.814Z,40.75
2019-02-16T08:39:11.391Z,40.84
2019-02-16T08:39:51.955Z,40.58
2019-02-16T08:40:32.563Z,40.67
2019-02-16T08:41:13.119Z,40.09
2019-02-16T08:41:53.768Z,40.19
2019-02-16T08:42:34.361Z,39.33
2019-02-16T08:43:14.944Z,38.47
2019-02-16T08:43:55.529Z,38.85
2019-02-16T08:44:36.141Z,38.87
2019-02-16T08:45:16.766Z,38.49
2019-02-16T08:45:57.395Z,38.3